sensor_id;sensor_type;location;lat;lon;timestamp;P1;durP1;ratioP1;P2;durP2;ratioP2
13230;SDS011;6681;53.254;10.398;2023-08-21T00:01:36;7.30;;;2.33;;
13230;SDS011;6681;53.254;10.398;2023-08-21T00:04:02;12.73;;;2.77;;
13230;SDS011;6681;53.254;10.398;2023-08-21T00:06:28;4.17;;;2.07;;
13230;SDS011;6681;53.254;10.398;2023-08-21T00:08:53;5.87;;;1.40;;
13230;SDS011;6681;53.254;10.398;2023-08-21T00:11:19;2.53;;;1.43;;
13230;SDS011;6681;53.254;10.398;2023-08-21T00:13:45;4.47;;;2.33;;
13230;SDS011;6681;53.254;10.398;2023-08-21T00:16:13;4.00;;;1.93;;
13230;SDS011;6681;53.254;10.398;2023-08-21T00:18:38;2.10;;;1.90;;
13230;SDS011;6681;53.254;10.398;2023-08-21T00:21:04;5.47;;;2.23;;
13230;SDS011;6681;53.254;10.398;2023-08-21T00:23:30;4.27;;;1.73;;
13230;SDS011;6681;53.254;10.398;2023-08-21T00:25:56;5.00;;;2.80;;
13230;SDS011;6681;53.254;10.398;2023-08-21T00:28:22;1.57;;;1.47;;
13230;SDS011;6681;53.254;10.398;2023-08-21T00:30:47;2.67;;;2.13;;
13230;SDS011;6681;53.254;10.398;2023-08-21T00:33:13;3.77;;;1.53;;
13230;SDS011;6681;53.254;10.398;2023-08-21T00:35:39;5.80;;;2.17;;
13230;SDS011;6681;53.254;10.398;2023-08-21T00:38:04;3.27;;;1.63;;
13230;SDS011;6681;53.254;10.398;2023-08-21T00:40:30;2.70;;;1.97;;
13230;SDS011;6681;53.254;10.398;2023-08-21T00:42:56;5.87;;;1.43;;
13230;SDS011;6681;53.254;10.398;2023-08-21T00:45:22;1.70;;;1.60;;
13230;SDS011;6681;53.254;10.398;2023-08-21T00:47:47;3.33;;;1.67;;
13230;SDS011;6681;53.254;10.398;2023-08-21T00:50:13;4.57;;;1.70;;
13230;SDS011;6681;53.254;10.398;2023-08-21T00:52:40;3.80;;;2.60;;
13230;SDS011;6681;53.254;10.398;2023-08-21T00:55:09;1.83;;;1.67;;
13230;SDS011;6681;53.254;10.398;2023-08-21T00:57:36;2.87;;;1.90;;
13230;SDS011;6681;53.254;10.398;2023-08-21T01:00:03;3.50;;;2.20;;
13230;SDS011;6681;53.254;10.398;2023-08-21T01:02:30;2.63;;;2.13;;
13230;SDS011;6681;53.254;10.398;2023-08-21T01:04:56;2.70;;;1.63;;
13230;SDS011;6681;53.254;10.398;2023-08-21T01:07:21;3.17;;;1.80;;
13230;SDS011;6681;53.254;10.398;2023-08-21T01:09:54;2.03;;;1.50;;
13230;SDS011;6681;53.254;10.398;2023-08-21T01:15:30;3.53;;;2.10;;
13230;SDS011;6681;53.254;10.398;2023-08-21T01:17:56;1.97;;;1.77;;
13230;SDS011;6681;53.254;10.398;2023-08-21T01:20:23;2.40;;;2.20;;
13230;SDS011;6681;53.254;10.398;2023-08-21T01:22:49;2.17;;;1.73;;
13230;SDS011;6681;53.254;10.398;2023-08-21T01:25:15;2.83;;;1.97;;
13230;SDS011;6681;53.254;10.398;2023-08-21T01:27:43;2.83;;;2.53;;
13230;SDS011;6681;53.254;10.398;2023-08-21T01:30:11;1.67;;;1.53;;
13230;SDS011;6681;53.254;10.398;2023-08-21T01:35:27;2.33;;;1.93;;
13230;SDS011;6681;53.254;10.398;2023-08-21T01:37:55;3.90;;;1.90;;
13230;SDS011;6681;53.254;10.398;2023-08-21T01:40:21;3.37;;;2.13;;
13230;SDS011;6681;53.254;10.398;2023-08-21T01:42:48;2.07;;;1.57;;
13230;SDS011;6681;53.254;10.398;2023-08-21T01:45:13;4.60;;;1.73;;
13230;SDS011;6681;53.254;10.398;2023-08-21T01:47:39;3.80;;;2.43;;
13230;SDS011;6681;53.254;10.398;2023-08-21T01:50:05;2.37;;;2.10;;
13230;SDS011;6681;53.254;10.398;2023-08-21T01:52:31;3.13;;;1.70;;
13230;SDS011;6681;53.254;10.398;2023-08-21T01:54:57;2.73;;;2.53;;
13230;SDS011;6681;53.254;10.398;2023-08-21T01:57:23;2.73;;;1.47;;
13230;SDS011;6681;53.254;10.398;2023-08-21T01:59:49;6.17;;;2.93;;
13230;SDS011;6681;53.254;10.398;2023-08-21T02:02:14;2.07;;;1.87;;
13230;SDS011;6681;53.254;10.398;2023-08-21T02:04:40;3.17;;;1.67;;
13230;SDS011;6681;53.254;10.398;2023-08-21T02:07:05;2.43;;;2.27;;
13230;SDS011;6681;53.254;10.398;2023-08-21T02:09:32;2.20;;;1.47;;
13230;SDS011;6681;53.254;10.398;2023-08-21T02:11:58;2.33;;;2.13;;
13230;SDS011;6681;53.254;10.398;2023-08-21T02:14:24;4.63;;;2.30;;
13230;SDS011;6681;53.254;10.398;2023-08-21T02:16:49;2.90;;;2.57;;
13230;SDS011;6681;53.254;10.398;2023-08-21T02:19:15;2.20;;;1.57;;
13230;SDS011;6681;53.254;10.398;2023-08-21T02:21:40;4.70;;;2.00;;
13230;SDS011;6681;53.254;10.398;2023-08-21T02:24:06;5.27;;;3.10;;
13230;SDS011;6681;53.254;10.398;2023-08-21T02:26:32;6.23;;;2.07;;
13230;SDS011;6681;53.254;10.398;2023-08-21T02:28:57;2.00;;;1.80;;
13230;SDS011;6681;53.254;10.398;2023-08-21T02:31:23;3.50;;;2.30;;
13230;SDS011;6681;53.254;10.398;2023-08-21T02:33:49;6.20;;;2.03;;
13230;SDS011;6681;53.254;10.398;2023-08-21T02:36:15;4.93;;;2.20;;
13230;SDS011;6681;53.254;10.398;2023-08-21T02:38:41;2.43;;;2.00;;
13230;SDS011;6681;53.254;10.398;2023-08-21T02:41:06;1.90;;;1.80;;
13230;SDS011;6681;53.254;10.398;2023-08-21T02:43:33;4.13;;;2.10;;
13230;SDS011;6681;53.254;10.398;2023-08-21T02:45:59;3.50;;;1.93;;
13230;SDS011;6681;53.254;10.398;2023-08-21T02:48:24;1.57;;;1.47;;
13230;SDS011;6681;53.254;10.398;2023-08-21T02:50:50;2.10;;;1.43;;
13230;SDS011;6681;53.254;10.398;2023-08-21T02:53:15;5.90;;;2.07;;
13230;SDS011;6681;53.254;10.398;2023-08-21T02:55:41;2.50;;;2.30;;
13230;SDS011;6681;53.254;10.398;2023-08-21T02:58:07;2.10;;;2.00;;
13230;SDS011;6681;53.254;10.398;2023-08-21T03:00:32;1.67;;;1.57;;
13230;SDS011;6681;53.254;10.398;2023-08-21T03:02:58;1.77;;;1.63;;
13230;SDS011;6681;53.254;10.398;2023-08-21T03:05:24;1.70;;;1.60;;
13230;SDS011;6681;53.254;10.398;2023-08-21T03:07:50;4.17;;;2.03;;
13230;SDS011;6681;53.254;10.398;2023-08-21T03:10:15;2.50;;;1.83;;
13230;SDS011;6681;53.254;10.398;2023-08-21T03:12:41;1.93;;;1.40;;
13230;SDS011;6681;53.254;10.398;2023-08-21T03:15:07;2.97;;;1.53;;
13230;SDS011;6681;53.254;10.398;2023-08-21T03:17:32;2.70;;;2.20;;
13230;SDS011;6681;53.254;10.398;2023-08-21T03:19:58;4.00;;;1.80;;
13230;SDS011;6681;53.254;10.398;2023-08-21T03:22:24;2.63;;;1.63;;
13230;SDS011;6681;53.254;10.398;2023-08-21T03:24:50;1.97;;;1.67;;
13230;SDS011;6681;53.254;10.398;2023-08-21T03:27:15;1.87;;;1.77;;
13230;SDS011;6681;53.254;10.398;2023-08-21T03:29:42;1.10;;;1.10;;
13230;SDS011;6681;53.254;10.398;2023-08-21T03:32:13;5.30;;;1.97;;
13230;SDS011;6681;53.254;10.398;2023-08-21T03:34:40;5.23;;;1.73;;
13230;SDS011;6681;53.254;10.398;2023-08-21T03:37:06;3.33;;;1.93;;
13230;SDS011;6681;53.254;10.398;2023-08-21T03:39:31;3.70;;;1.33;;
13230;SDS011;6681;53.254;10.398;2023-08-21T03:41:58;3.37;;;1.63;;
13230;SDS011;6681;53.254;10.398;2023-08-21T03:44:23;5.23;;;2.00;;
13230;SDS011;6681;53.254;10.398;2023-08-21T03:46:49;1.63;;;1.37;;
13230;SDS011;6681;53.254;10.398;2023-08-21T03:49:14;3.63;;;1.50;;
13230;SDS011;6681;53.254;10.398;2023-08-21T03:51:40;4.10;;;1.93;;
13230;SDS011;6681;53.254;10.398;2023-08-21T03:54:06;4.87;;;1.63;;
13230;SDS011;6681;53.254;10.398;2023-08-21T03:56:31;2.77;;;1.67;;
13230;SDS011;6681;53.254;10.398;2023-08-21T03:58:57;5.23;;;1.70;;
13230;SDS011;6681;53.254;10.398;2023-08-21T04:01:22;4.37;;;1.30;;
13230;SDS011;6681;53.254;10.398;2023-08-21T04:03:48;2.00;;;1.90;;
13230;SDS011;6681;53.254;10.398;2023-08-21T04:06:14;2.20;;;2.00;;
13230;SDS011;6681;53.254;10.398;2023-08-21T04:08:39;3.93;;;1.70;;
13230;SDS011;6681;53.254;10.398;2023-08-21T04:11:05;2.03;;;1.87;;
13230;SDS011;6681;53.254;10.398;2023-08-21T04:13:31;5.00;;;2.80;;
13230;SDS011;6681;53.254;10.398;2023-08-21T04:15:57;2.93;;;1.67;;
13230;SDS011;6681;53.254;10.398;2023-08-21T04:18:23;2.50;;;2.17;;
13230;SDS011;6681;53.254;10.398;2023-08-21T04:20:48;2.00;;;1.87;;
13230;SDS011;6681;53.254;10.398;2023-08-21T04:23:14;4.83;;;3.83;;
13230;SDS011;6681;53.254;10.398;2023-08-21T04:25:40;4.03;;;1.93;;
13230;SDS011;6681;53.254;10.398;2023-08-21T04:28:06;3.43;;;2.43;;
13230;SDS011;6681;53.254;10.398;2023-08-21T04:30:32;4.43;;;2.10;;
13230;SDS011;6681;53.254;10.398;2023-08-21T04:32:58;2.03;;;1.83;;
13230;SDS011;6681;53.254;10.398;2023-08-21T04:35:24;2.37;;;2.23;;
13230;SDS011;6681;53.254;10.398;2023-08-21T04:37:50;3.07;;;2.37;;
13230;SDS011;6681;53.254;10.398;2023-08-21T04:40:15;5.57;;;1.70;;
13230;SDS011;6681;53.254;10.398;2023-08-21T04:42:42;2.37;;;2.17;;
13230;SDS011;6681;53.254;10.398;2023-08-21T04:45:09;3.40;;;2.47;;
13230;SDS011;6681;53.254;10.398;2023-08-21T04:47:35;4.87;;;2.00;;
13230;SDS011;6681;53.254;10.398;2023-08-21T04:50:00;3.00;;;2.80;;
13230;SDS011;6681;53.254;10.398;2023-08-21T04:52:26;4.47;;;2.40;;
13230;SDS011;6681;53.254;10.398;2023-08-21T04:54:52;5.63;;;2.73;;
13230;SDS011;6681;53.254;10.398;2023-08-21T04:57:19;4.20;;;3.33;;
13230;SDS011;6681;53.254;10.398;2023-08-21T04:59:46;5.40;;;3.20;;
13230;SDS011;6681;53.254;10.398;2023-08-21T05:02:12;5.23;;;3.20;;
13230;SDS011;6681;53.254;10.398;2023-08-21T05:04:37;6.40;;;3.10;;
13230;SDS011;6681;53.254;10.398;2023-08-21T05:07:04;9.43;;;3.73;;
13230;SDS011;6681;53.254;10.398;2023-08-21T05:09:31;6.23;;;2.63;;
13230;SDS011;6681;53.254;10.398;2023-08-21T05:11:57;4.13;;;2.77;;
13230;SDS011;6681;53.254;10.398;2023-08-21T05:14:23;3.77;;;2.83;;
13230;SDS011;6681;53.254;10.398;2023-08-21T05:16:49;2.93;;;2.17;;
13230;SDS011;6681;53.254;10.398;2023-08-21T05:19:15;7.53;;;3.13;;
13230;SDS011;6681;53.254;10.398;2023-08-21T05:21:41;5.53;;;2.93;;
13230;SDS011;6681;53.254;10.398;2023-08-21T05:24:07;11.73;;;4.30;;
13230;SDS011;6681;53.254;10.398;2023-08-21T05:26:32;8.13;;;2.63;;
13230;SDS011;6681;53.254;10.398;2023-08-21T05:29:00;6.20;;;3.43;;
13230;SDS011;6681;53.254;10.398;2023-08-21T05:31:25;3.93;;;1.60;;
13230;SDS011;6681;53.254;10.398;2023-08-21T05:33:51;4.70;;;2.67;;
13230;SDS011;6681;53.254;10.398;2023-08-21T05:36:17;5.03;;;2.73;;
13230;SDS011;6681;53.254;10.398;2023-08-21T05:38:42;7.07;;;3.33;;
13230;SDS011;6681;53.254;10.398;2023-08-21T05:41:08;5.13;;;2.93;;
13230;SDS011;6681;53.254;10.398;2023-08-21T05:43:33;2.57;;;2.33;;
13230;SDS011;6681;53.254;10.398;2023-08-21T05:46:02;3.73;;;2.20;;
13230;SDS011;6681;53.254;10.398;2023-08-21T05:48:30;6.10;;;2.87;;
13230;SDS011;6681;53.254;10.398;2023-08-21T05:50:57;2.93;;;1.80;;
13230;SDS011;6681;53.254;10.398;2023-08-21T05:53:22;5.83;;;1.97;;
13230;SDS011;6681;53.254;10.398;2023-08-21T05:55:48;7.97;;;2.60;;
13230;SDS011;6681;53.254;10.398;2023-08-21T05:58:14;7.27;;;2.10;;
13230;SDS011;6681;53.254;10.398;2023-08-21T06:00:40;6.50;;;2.13;;
13230;SDS011;6681;53.254;10.398;2023-08-21T06:03:06;6.07;;;1.50;;
13230;SDS011;6681;53.254;10.398;2023-08-21T06:05:31;5.83;;;2.43;;
13230;SDS011;6681;53.254;10.398;2023-08-21T06:07:57;6.50;;;2.83;;
13230;SDS011;6681;53.254;10.398;2023-08-21T06:10:23;7.33;;;1.93;;
13230;SDS011;6681;53.254;10.398;2023-08-21T06:12:48;6.47;;;2.73;;
13230;SDS011;6681;53.254;10.398;2023-08-21T06:15:16;8.47;;;3.13;;
13230;SDS011;6681;53.254;10.398;2023-08-21T06:17:42;5.67;;;2.87;;
13230;SDS011;6681;53.254;10.398;2023-08-21T06:20:07;7.70;;;3.63;;
13230;SDS011;6681;53.254;10.398;2023-08-21T06:22:34;3.73;;;2.03;;
13230;SDS011;6681;53.254;10.398;2023-08-21T06:25:00;3.53;;;2.07;;
13230;SDS011;6681;53.254;10.398;2023-08-21T06:27:26;6.53;;;2.43;;
13230;SDS011;6681;53.254;10.398;2023-08-21T06:29:51;4.67;;;2.00;;
13230;SDS011;6681;53.254;10.398;2023-08-21T06:32:17;5.60;;;1.50;;
13230;SDS011;6681;53.254;10.398;2023-08-21T06:34:43;3.77;;;1.80;;
13230;SDS011;6681;53.254;10.398;2023-08-21T06:37:08;5.20;;;2.13;;
13230;SDS011;6681;53.254;10.398;2023-08-21T06:39:34;3.73;;;1.57;;
13230;SDS011;6681;53.254;10.398;2023-08-21T06:42:00;5.80;;;2.53;;
13230;SDS011;6681;53.254;10.398;2023-08-21T06:44:26;5.43;;;2.17;;
13230;SDS011;6681;53.254;10.398;2023-08-21T06:46:52;6.40;;;1.97;;
13230;SDS011;6681;53.254;10.398;2023-08-21T06:49:17;2.90;;;1.97;;
13230;SDS011;6681;53.254;10.398;2023-08-21T06:51:43;4.23;;;1.67;;
13230;SDS011;6681;53.254;10.398;2023-08-21T06:54:09;4.67;;;1.83;;
13230;SDS011;6681;53.254;10.398;2023-08-21T06:56:35;4.87;;;1.70;;
13230;SDS011;6681;53.254;10.398;2023-08-21T06:59:00;5.00;;;2.10;;
13230;SDS011;6681;53.254;10.398;2023-08-21T07:01:27;3.97;;;1.73;;
13230;SDS011;6681;53.254;10.398;2023-08-21T07:03:53;7.20;;;2.10;;
13230;SDS011;6681;53.254;10.398;2023-08-21T07:06:19;5.77;;;2.43;;
13230;SDS011;6681;53.254;10.398;2023-08-21T07:08:44;6.13;;;1.90;;
13230;SDS011;6681;53.254;10.398;2023-08-21T07:11:10;5.60;;;2.57;;
13230;SDS011;6681;53.254;10.398;2023-08-21T07:13:37;3.10;;;1.73;;
13230;SDS011;6681;53.254;10.398;2023-08-21T07:16:03;8.27;;;2.10;;
13230;SDS011;6681;53.254;10.398;2023-08-21T07:18:33;2.33;;;1.90;;
13230;SDS011;6681;53.254;10.398;2023-08-21T07:20:59;11.03;;;2.10;;
13230;SDS011;6681;53.254;10.398;2023-08-21T07:23:26;2.77;;;1.30;;
13230;SDS011;6681;53.254;10.398;2023-08-21T07:25:51;8.40;;;2.60;;
13230;SDS011;6681;53.254;10.398;2023-08-21T07:28:17;3.20;;;1.37;;
13230;SDS011;6681;53.254;10.398;2023-08-21T07:30:43;2.97;;;2.17;;
13230;SDS011;6681;53.254;10.398;2023-08-21T07:33:08;6.03;;;2.50;;
13230;SDS011;6681;53.254;10.398;2023-08-21T07:35:34;8.73;;;3.10;;
13230;SDS011;6681;53.254;10.398;2023-08-21T07:38:01;5.93;;;2.20;;
13230;SDS011;6681;53.254;10.398;2023-08-21T07:40:27;4.90;;;1.70;;
13230;SDS011;6681;53.254;10.398;2023-08-21T07:42:52;7.70;;;2.73;;
13230;SDS011;6681;53.254;10.398;2023-08-21T07:45:18;10.90;;;2.50;;
13230;SDS011;6681;53.254;10.398;2023-08-21T07:47:44;7.57;;;2.47;;
13230;SDS011;6681;53.254;10.398;2023-08-21T07:50:10;7.23;;;2.63;;
13230;SDS011;6681;53.254;10.398;2023-08-21T07:52:36;11.73;;;2.57;;
13230;SDS011;6681;53.254;10.398;2023-08-21T07:55:02;4.67;;;2.20;;
13230;SDS011;6681;53.254;10.398;2023-08-21T07:57:28;10.33;;;2.43;;
13230;SDS011;6681;53.254;10.398;2023-08-21T07:59:55;20.80;;;4.17;;
13230;SDS011;6681;53.254;10.398;2023-08-21T08:02:21;9.27;;;3.43;;
13230;SDS011;6681;53.254;10.398;2023-08-21T08:04:48;7.30;;;2.37;;
13230;SDS011;6681;53.254;10.398;2023-08-21T08:07:13;2.87;;;1.97;;
13230;SDS011;6681;53.254;10.398;2023-08-21T08:09:39;5.30;;;1.97;;
13230;SDS011;6681;53.254;10.398;2023-08-21T08:12:06;9.53;;;2.37;;
13230;SDS011;6681;53.254;10.398;2023-08-21T08:14:32;6.43;;;2.20;;
13230;SDS011;6681;53.254;10.398;2023-08-21T08:16:57;6.43;;;2.80;;
13230;SDS011;6681;53.254;10.398;2023-08-21T08:19:23;3.63;;;1.90;;
13230;SDS011;6681;53.254;10.398;2023-08-21T08:21:49;4.33;;;1.97;;
13230;SDS011;6681;53.254;10.398;2023-08-21T08:24:14;6.87;;;2.17;;
13230;SDS011;6681;53.254;10.398;2023-08-21T08:26:40;3.67;;;1.80;;
13230;SDS011;6681;53.254;10.398;2023-08-21T08:29:07;5.27;;;2.33;;
13230;SDS011;6681;53.254;10.398;2023-08-21T08:31:33;4.90;;;1.83;;
13230;SDS011;6681;53.254;10.398;2023-08-21T08:33:59;2.20;;;1.90;;
13230;SDS011;6681;53.254;10.398;2023-08-21T08:36:25;5.47;;;1.50;;
13230;SDS011;6681;53.254;10.398;2023-08-21T08:38:50;10.80;;;2.57;;
13230;SDS011;6681;53.254;10.398;2023-08-21T08:41:20;7.23;;;2.83;;
13230;SDS011;6681;53.254;10.398;2023-08-21T08:43:53;13.07;;;3.00;;
13230;SDS011;6681;53.254;10.398;2023-08-21T08:46:23;7.73;;;2.30;;
13230;SDS011;6681;53.254;10.398;2023-08-21T08:48:50;4.10;;;3.27;;
13230;SDS011;6681;53.254;10.398;2023-08-21T08:51:17;5.30;;;1.80;;
13230;SDS011;6681;53.254;10.398;2023-08-21T08:53:43;7.43;;;1.90;;
13230;SDS011;6681;53.254;10.398;2023-08-21T08:56:09;4.43;;;2.03;;
13230;SDS011;6681;53.254;10.398;2023-08-21T08:58:35;6.13;;;1.40;;
13230;SDS011;6681;53.254;10.398;2023-08-21T09:01:01;8.97;;;3.10;;
13230;SDS011;6681;53.254;10.398;2023-08-21T09:03:27;5.30;;;1.20;;
13230;SDS011;6681;53.254;10.398;2023-08-21T09:05:54;4.10;;;2.00;;
13230;SDS011;6681;53.254;10.398;2023-08-21T09:08:20;6.37;;;1.83;;
13230;SDS011;6681;53.254;10.398;2023-08-21T09:10:45;3.37;;;1.67;;
13230;SDS011;6681;53.254;10.398;2023-08-21T09:13:18;4.20;;;2.03;;
13230;SDS011;6681;53.254;10.398;2023-08-21T09:15:48;1.97;;;1.20;;
13230;SDS011;6681;53.254;10.398;2023-08-21T09:18:18;3.27;;;1.10;;
13230;SDS011;6681;53.254;10.398;2023-08-21T09:20:44;1.60;;;1.00;;
13230;SDS011;6681;53.254;10.398;2023-08-21T09:23:13;3.20;;;1.43;;
13230;SDS011;6681;53.254;10.398;2023-08-21T09:25:40;4.03;;;1.03;;
13230;SDS011;6681;53.254;10.398;2023-08-21T09:28:06;2.97;;;2.00;;
13230;SDS011;6681;53.254;10.398;2023-08-21T09:30:49;4.93;;;1.17;;
13230;SDS011;6681;53.254;10.398;2023-08-21T09:33:17;4.30;;;1.60;;
13230;SDS011;6681;53.254;10.398;2023-08-21T09:35:46;3.17;;;1.40;;
13230;SDS011;6681;53.254;10.398;2023-08-21T09:38:13;8.03;;;3.10;;
13230;SDS011;6681;53.254;10.398;2023-08-21T09:40:42;1.90;;;1.00;;
13230;SDS011;6681;53.254;10.398;2023-08-21T09:43:09;2.60;;;1.07;;
13230;SDS011;6681;53.254;10.398;2023-08-21T09:45:38;10.17;;;2.53;;
13230;SDS011;6681;53.254;10.398;2023-08-21T09:48:04;4.07;;;0.93;;
13230;SDS011;6681;53.254;10.398;2023-08-21T09:50:30;3.63;;;1.90;;
13230;SDS011;6681;53.254;10.398;2023-08-21T09:52:57;6.53;;;1.87;;
13230;SDS011;6681;53.254;10.398;2023-08-21T09:55:23;2.47;;;0.87;;
13230;SDS011;6681;53.254;10.398;2023-08-21T09:57:52;2.43;;;1.33;;
13230;SDS011;6681;53.254;10.398;2023-08-21T10:00:24;3.93;;;1.30;;
13230;SDS011;6681;53.254;10.398;2023-08-21T10:02:53;3.70;;;1.37;;
13230;SDS011;6681;53.254;10.398;2023-08-21T10:05:19;3.63;;;1.37;;
13230;SDS011;6681;53.254;10.398;2023-08-21T10:07:48;4.10;;;2.00;;
13230;SDS011;6681;53.254;10.398;2023-08-21T10:10:15;2.73;;;1.23;;
13230;SDS011;6681;53.254;10.398;2023-08-21T10:12:42;4.43;;;1.30;;
13230;SDS011;6681;53.254;10.398;2023-08-21T10:15:08;2.77;;;1.50;;
13230;SDS011;6681;53.254;10.398;2023-08-21T10:17:37;1.97;;;0.90;;
13230;SDS011;6681;53.254;10.398;2023-08-21T10:20:04;4.23;;;0.77;;
13230;SDS011;6681;53.254;10.398;2023-08-21T10:25:19;3.37;;;1.20;;
13230;SDS011;6681;53.254;10.398;2023-08-21T10:27:50;2.27;;;0.47;;
13230;SDS011;6681;53.254;10.398;2023-08-21T10:30:20;0.70;;;0.60;;
13230;SDS011;6681;53.254;10.398;2023-08-21T10:32:48;2.77;;;0.97;;
13230;SDS011;6681;53.254;10.398;2023-08-21T10:35:15;2.83;;;0.73;;
13230;SDS011;6681;53.254;10.398;2023-08-21T10:38:04;3.03;;;1.20;;
13230;SDS011;6681;53.254;10.398;2023-08-21T10:40:35;4.23;;;1.90;;
13230;SDS011;6681;53.254;10.398;2023-08-21T10:43:02;2.03;;;0.60;;
13230;SDS011;6681;53.254;10.398;2023-08-21T10:45:28;4.43;;;0.97;;
13230;SDS011;6681;53.254;10.398;2023-08-21T10:48:03;2.33;;;0.93;;
13230;SDS011;6681;53.254;10.398;2023-08-21T10:50:31;2.00;;;0.83;;
13230;SDS011;6681;53.254;10.398;2023-08-21T10:52:57;0.50;;;0.50;;
13230;SDS011;6681;53.254;10.398;2023-08-21T10:55:24;1.57;;;0.50;;
13230;SDS011;6681;53.254;10.398;2023-08-21T10:57:50;0.67;;;0.50;;
13230;SDS011;6681;53.254;10.398;2023-08-21T11:00:17;3.13;;;0.80;;
13230;SDS011;6681;53.254;10.398;2023-08-21T11:02:47;2.63;;;0.60;;
13230;SDS011;6681;53.254;10.398;2023-08-21T11:05:14;3.43;;;0.93;;
13230;SDS011;6681;53.254;10.398;2023-08-21T11:07:41;3.27;;;1.03;;
13230;SDS011;6681;53.254;10.398;2023-08-21T11:10:12;3.53;;;1.83;;
13230;SDS011;6681;53.254;10.398;2023-08-21T11:12:55;0.90;;;0.90;;
13230;SDS011;6681;53.254;10.398;2023-08-21T11:15:22;2.13;;;0.73;;
13230;SDS011;6681;53.254;10.398;2023-08-21T11:17:56;4.97;;;1.70;;
13230;SDS011;6681;53.254;10.398;2023-08-21T11:22:59;1.10;;;0.37;;
13230;SDS011;6681;53.254;10.398;2023-08-21T11:25:27;1.23;;;0.80;;
13230;SDS011;6681;53.254;10.398;2023-08-21T11:27:54;4.23;;;1.03;;
13230;SDS011;6681;53.254;10.398;2023-08-21T11:30:22;1.10;;;0.50;;
13230;SDS011;6681;53.254;10.398;2023-08-21T11:33:10;2.47;;;0.70;;
13230;SDS011;6681;53.254;10.398;2023-08-21T11:35:38;2.57;;;1.20;;
13230;SDS011;6681;53.254;10.398;2023-08-21T11:38:04;1.67;;;0.60;;
13230;SDS011;6681;53.254;10.398;2023-08-21T11:40:30;2.90;;;1.53;;
13230;SDS011;6681;53.254;10.398;2023-08-21T11:43:02;2.73;;;0.83;;
13230;SDS011;6681;53.254;10.398;2023-08-21T11:45:30;0.87;;;0.60;;
13230;SDS011;6681;53.254;10.398;2023-08-21T11:47:56;2.53;;;0.57;;
13230;SDS011;6681;53.254;10.398;2023-08-21T11:50:22;1.93;;;1.00;;
13230;SDS011;6681;53.254;10.398;2023-08-21T11:52:50;3.90;;;1.17;;
13230;SDS011;6681;53.254;10.398;2023-08-21T11:55:17;1.43;;;0.50;;
13230;SDS011;6681;53.254;10.398;2023-08-21T11:57:50;0.80;;;0.57;;
13230;SDS011;6681;53.254;10.398;2023-08-21T12:00:17;1.60;;;0.60;;
13230;SDS011;6681;53.254;10.398;2023-08-21T12:02:58;3.07;;;0.73;;
13230;SDS011;6681;53.254;10.398;2023-08-21T12:05:28;1.07;;;0.80;;
13230;SDS011;6681;53.254;10.398;2023-08-21T12:07:53;0.77;;;0.43;;
13230;SDS011;6681;53.254;10.398;2023-08-21T12:10:24;3.70;;;0.80;;
13230;SDS011;6681;53.254;10.398;2023-08-21T12:12:53;1.53;;;0.50;;
13230;SDS011;6681;53.254;10.398;2023-08-21T12:15:19;0.77;;;0.50;;
13230;SDS011;6681;53.254;10.398;2023-08-21T12:17:45;2.47;;;0.93;;
13230;SDS011;6681;53.254;10.398;2023-08-21T12:20:11;1.57;;;0.97;;
13230;SDS011;6681;53.254;10.398;2023-08-21T12:22:37;3.90;;;0.90;;
13230;SDS011;6681;53.254;10.398;2023-08-21T12:25:03;1.67;;;1.23;;
13230;SDS011;6681;53.254;10.398;2023-08-21T12:27:30;0.50;;;0.47;;
13230;SDS011;6681;53.254;10.398;2023-08-21T12:29:56;1.17;;;0.80;;
13230;SDS011;6681;53.254;10.398;2023-08-21T12:32:21;2.80;;;0.80;;
13230;SDS011;6681;53.254;10.398;2023-08-21T12:34:47;1.60;;;1.00;;
13230;SDS011;6681;53.254;10.398;2023-08-21T12:37:13;3.93;;;0.50;;
13230;SDS011;6681;53.254;10.398;2023-08-21T12:39:39;3.03;;;0.70;;
13230;SDS011;6681;53.254;10.398;2023-08-21T12:42:04;1.10;;;0.97;;
13230;SDS011;6681;53.254;10.398;2023-08-21T12:44:30;1.43;;;0.50;;
13230;SDS011;6681;53.254;10.398;2023-08-21T12:46:56;3.23;;;0.80;;
13230;SDS011;6681;53.254;10.398;2023-08-21T12:49:22;1.53;;;0.80;;
13230;SDS011;6681;53.254;10.398;2023-08-21T12:51:47;1.17;;;0.60;;
13230;SDS011;6681;53.254;10.398;2023-08-21T12:54:13;1.23;;;0.93;;
13230;SDS011;6681;53.254;10.398;2023-08-21T12:56:39;2.07;;;0.70;;
13230;SDS011;6681;53.254;10.398;2023-08-21T12:59:04;3.30;;;1.40;;
13230;SDS011;6681;53.254;10.398;2023-08-21T13:01:30;0.63;;;0.60;;
13230;SDS011;6681;53.254;10.398;2023-08-21T13:03:59;3.60;;;0.90;;
13230;SDS011;6681;53.254;10.398;2023-08-21T13:06:25;1.10;;;1.00;;
13230;SDS011;6681;53.254;10.398;2023-08-21T13:08:51;1.67;;;1.00;;
13230;SDS011;6681;53.254;10.398;2023-08-21T13:11:17;1.40;;;0.77;;
13230;SDS011;6681;53.254;10.398;2023-08-21T13:13:43;3.70;;;0.90;;
13230;SDS011;6681;53.254;10.398;2023-08-21T13:16:08;2.10;;;0.70;;
13230;SDS011;6681;53.254;10.398;2023-08-21T13:18:34;1.27;;;0.80;;
13230;SDS011;6681;53.254;10.398;2023-08-21T13:21:00;2.20;;;1.47;;
13230;SDS011;6681;53.254;10.398;2023-08-21T13:23:25;1.65;;;0.95;;
13230;SDS011;6681;53.254;10.398;2023-08-21T13:25:53;1.25;;;0.52;;
13230;SDS011;6681;53.254;10.398;2023-08-21T13:28:19;0.98;;;0.70;;
13230;SDS011;6681;53.254;10.398;2023-08-21T13:30:44;1.53;;;0.60;;
13230;SDS011;6681;53.254;10.398;2023-08-21T13:33:10;1.10;;;0.60;;
13230;SDS011;6681;53.254;10.398;2023-08-21T13:35:35;1.90;;;0.70;;
13230;SDS011;6681;53.254;10.398;2023-08-21T13:38:01;3.90;;;0.80;;
13230;SDS011;6681;53.254;10.398;2023-08-21T13:40:28;3.15;;;0.55;;
13230;SDS011;6681;53.254;10.398;2023-08-21T13:42:54;1.83;;;0.52;;
13230;SDS011;6681;53.254;10.398;2023-08-21T13:45:19;4.00;;;0.65;;
13230;SDS011;6681;53.254;10.398;2023-08-21T13:47:46;2.45;;;0.80;;
13230;SDS011;6681;53.254;10.398;2023-08-21T13:50:13;1.95;;;0.68;;
13230;SDS011;6681;53.254;10.398;2023-08-21T13:52:40;0.75;;;0.75;;
13230;SDS011;6681;53.254;10.398;2023-08-21T13:55:06;0.80;;;0.63;;
13230;SDS011;6681;53.254;10.398;2023-08-21T13:57:34;2.85;;;0.90;;
13230;SDS011;6681;53.254;10.398;2023-08-21T14:00:01;1.23;;;0.70;;
13230;SDS011;6681;53.254;10.398;2023-08-21T14:02:32;0.75;;;0.75;;
13230;SDS011;6681;53.254;10.398;2023-08-21T14:05:01;4.00;;;1.40;;
13230;SDS011;6681;53.254;10.398;2023-08-21T14:07:29;0.88;;;0.80;;
13230;SDS011;6681;53.254;10.398;2023-08-21T14:09:55;3.63;;;1.58;;
13230;SDS011;6681;53.254;10.398;2023-08-21T14:12:21;1.65;;;0.98;;
13230;SDS011;6681;53.254;10.398;2023-08-21T14:14:47;1.02;;;0.80;;
13230;SDS011;6681;53.254;10.398;2023-08-21T14:17:13;0.77;;;0.50;;
13230;SDS011;6681;53.254;10.398;2023-08-21T14:19:38;2.13;;;0.68;;
13230;SDS011;6681;53.254;10.398;2023-08-21T14:22:04;2.88;;;2.60;;
13230;SDS011;6681;53.254;10.398;2023-08-21T14:24:30;3.53;;;1.17;;
13230;SDS011;6681;53.254;10.398;2023-08-21T14:26:56;1.30;;;0.40;;
13230;SDS011;6681;53.254;10.398;2023-08-21T14:29:21;0.73;;;0.70;;
13230;SDS011;6681;53.254;10.398;2023-08-21T14:31:47;2.05;;;0.57;;
13230;SDS011;6681;53.254;10.398;2023-08-21T14:34:14;1.52;;;0.63;;
13230;SDS011;6681;53.254;10.398;2023-08-21T14:36:40;0.93;;;0.90;;
13230;SDS011;6681;53.254;10.398;2023-08-21T14:39:07;0.95;;;0.95;;
13230;SDS011;6681;53.254;10.398;2023-08-21T14:41:35;2.05;;;1.27;;
13230;SDS011;6681;53.254;10.398;2023-08-21T14:44:02;1.00;;;0.70;;
13230;SDS011;6681;53.254;10.398;2023-08-21T14:46:28;1.73;;;0.80;;
13230;SDS011;6681;53.254;10.398;2023-08-21T14:48:53;2.63;;;1.25;;
13230;SDS011;6681;53.254;10.398;2023-08-21T14:51:19;1.48;;;0.73;;
13230;SDS011;6681;53.254;10.398;2023-08-21T14:53:45;2.95;;;0.77;;
13230;SDS011;6681;53.254;10.398;2023-08-21T14:56:10;1.60;;;0.68;;